Ulmodrome de Limoux

FR-0329 · Occitanie, Francja

5 października 2022

Czas Kod Pogoda Temp. Widoczność Sufit Wiatr METAR/SPECI
19:00
I
21 °C 10 km+ 900 ft 120° 120° 9 kt METAR LFMP 051700Z AUTO 12009KT 9999 BKN009 BKN013 OVC046 21/19 Q1024 NOSIG
18:30
I
22 °C 10 km+ 900 ft 120° 120° 10 kt METAR LFMP 051630Z AUTO 12010KT 090V150 9999 BKN009 BKN044 OVC056 22/19 Q1024 NOSIG
18:00
I
22 °C 10 km+ 900 ft 110° 110° 12 kt METAR LFMP 051600Z AUTO 11012KT 080V140 9999 OVC009 22/19 Q1023 NOSIG
17:30
M
22 °C 10 km+ 1.200 ft 100° 100° 11 kt METAR LFMP 051530Z AUTO 10011KT 070V130 9999 BKN012 OVC022 22/19 Q1023 BECMG BKN008
17:00
M
22 °C 10 km+ 1.300 ft 090° 090° 13 kt METAR LFMP 051500Z AUTO 09013KT 9999 BKN013 BKN020 OVC025 22/18 Q1023 TEMPO SCT011 BKN015 BECMG VRB03KT
16:30
M
22 °C 10 km+ 1.300 ft 090° 090° 12 kt METAR LFMP 051430Z AUTO 09012KT 070V130 9999 BKN013 BKN020 BKN026 22/18 Q1023 TEMPO SCT011 BKN015
16:00
M
22 °C 10 km+ 1.300 ft 090° 090° 12 kt METAR LFMP 051400Z AUTO 09012KT 9999 BKN013 BKN019 OVC026 22/18 Q1024 BECMG SCT011 BKN015
15:30
M
22 °C 10 km+ 1.200 ft 090° 090° 13 kt METAR LFMP 051330Z AUTO 09013KT 060V120 9999 BKN012 OVC020 22/18 Q1024 BECMG SCT011 BKN015
15:00
M
22 °C 10 km+ 1.500 ft 090° 090° 13 kt METAR LFMP 051300Z AUTO 09013KT 9999 BKN015 BKN021 22/18 Q1024 NOSIG
14:30
M
23 °C 10 km+ 1.400 ft 080° 080° 12 kt METAR LFMP 051230Z AUTO 08012KT 9999 BKN014 BKN022 23/18 Q1024 BECMG SCT011 BKN015
14:00
M
22 °C 10 km+ 1.400 ft 080° 080° 12 kt METAR LFMP 051200Z AUTO 08012KT 9999 OVC014 22/18 Q1024 BECMG SCT011 BKN015
13:30
M
21 °C 10 km+ 1.200 ft 080° 080° 11 kt METAR LFMP 051130Z AUTO 08011KT 9999 BKN012 OVC019 21/17 Q1024 BECMG SCT015
13:00
M
21 °C 10 km+ 1.100 ft 090° 090° 11 kt METAR LFMP 051100Z AUTO 09011KT 060V130 9999 BKN011 BKN016 OVC024 21/17 Q1024 BECMG SCT015
12:30
M
22 °C 10 km+ 1.200 ft 090° 090° 11 kt METAR LFMP 051030Z AUTO 09011KT 9999 BKN012 BKN017 BKN024 22/18 Q1024 BECMG SCT015
12:00
M
22 °C 10 km+ 1.800 ft 110° 110° 8 kt METAR LFMP 051000Z AUTO 11008KT 080V150 9999 BKN018 22/16 Q1024 NOSIG
11:30
V
22 °C 10 km+ - 100° 100° 9 kt METAR LFMP 050930Z AUTO 10009KT 070V140 9999 FEW019 22/16 Q1024 NOSIG
11:00
V
21 °C 10 km+ - 130° 130° 6 kt METAR LFMP 050900Z AUTO 13006KT 080V170 CAVOK 21/15 Q1024 NOSIG
10:30
V
20 °C 10 km+ - 120° 120° 6 kt METAR LFMP 050830Z AUTO 12006KT 070V150 CAVOK 20/16 Q1024 NOSIG
10:00
V
20 °C 10 km+ - 090° 090° 7 kt METAR LFMP 050800Z AUTO 09007KT 050V140 9999 FEW015 20/16 Q1024 TEMPO 4000 BR BKN008
09:30
V
19 °C 10 km+ - 350° 350° 3 kt METAR LFMP 050730Z AUTO 35003KT 320V030 CAVOK 19/16 Q1024 TEMPO 4000 BR BKN008 BECMG 12012KT
09:00
M
17 °C 10 km+ 1.200 ft Var Var 3 kt METAR LFMP 050700Z AUTO VRB03KT 9999 BKN012 BKN018 17/16 Q1023 TEMPO 4000 BR BKN008
08:30
M
16 °C 10 km+ 1.300 ft Var Var 1 kt METAR LFMP 050630Z AUTO VRB01KT 9999 BKN013 16/15 Q1023 TEMPO 4000 BR BKN008 BECMG 12012KT
08:00
M
16 °C 10 km+ 1.400 ft Var Var 3 kt METAR LFMP 050600Z AUTO VRB03KT 9999 OVC014 16/14 Q1023 TEMPO 4000 BR BKN008
07:30
V
15 °C 10 km+ - 330° 330° 5 kt METAR LFMP 050530Z AUTO 33005KT 9999 FEW016 15/14 Q1023 TEMPO 4000 BR BKN008
07:00
V
14 °C 10 km+ - Var Var 2 kt METAR LFMP 050500Z AUTO VRB02KT 9999 FEW011 14/13 Q1023 TEMPO 4000 BR VV///
06:30
M
14 °C 10 km+ 1.100 ft Var Var 1 kt METAR LFMP 050430Z AUTO VRB01KT 9999 BKN011 14/13 Q1023 TEMPO 4000 BR VV///
06:00
M
14 °C 10 km+ 1.000 ft Var Var 2 kt METAR LFMP 050400Z AUTO VRB02KT 9999 OVC010 14/13 Q1023 TEMPO 0900 FG VV///
05:30
M
14 °C 10 km+ 1.200 ft Var Var 2 kt METAR LFMP 050330Z AUTO VRB02KT 9999 BKN012 14/13 Q1023 TEMPO 0900 FG VV///
05:00
V
13 °C 10 km+ - Var Var 2 kt METAR LFMP 050300Z AUTO VRB02KT 9999 SCT011 13/12 Q1023 TEMPO 0900 FG VV///
04:30
V
13 °C 10 km+ - 250° 250° 2 kt METAR LFMP 050230Z AUTO 25002KT CAVOK 13/12 Q1023
04:00
V
14 °C 10 km+ - Var 000° 0 kt METAR LFMP 050200Z AUTO 00000KT CAVOK 14/12 Q1023
03:30
V
14 °C 10 km+ - 230° 230° 3 kt METAR LFMP 050130Z AUTO 23003KT CAVOK 14/12 Q1023
03:00
V
14 °C 10 km+ - 240° 240° 4 kt METAR LFMP 050100Z AUTO 24004KT CAVOK 14/12 Q1023
02:30
V
14 °C 10 km+ - Var Var 1 kt METAR LFMP 050030Z AUTO VRB01KT CAVOK 14/12 Q1023
02:00
V
14 °C 10 km+ - Var 000° 0 kt METAR LFMP 050000Z AUTO 00000KT CAVOK 14/12 Q1023
01:30
V
15 °C 10 km+ - 290° 290° 3 kt METAR LFMP 042330Z AUTO 29003KT CAVOK 15/12 Q1023
01:00
V
15 °C 10 km+ - Var Var 1 kt METAR LFMP 042300Z AUTO VRB01KT CAVOK 15/13 Q1023
00:30
V
15 °C 10 km+ - 260° 260° 1 kt METAR LFMP 042230Z AUTO 26001KT CAVOK 15/13 Q1023
00:00
V
16 °C 10 km+ - Var Var 2 kt METAR LFMP 042200Z AUTO VRB02KT CAVOK 16/13 Q1023

4 października 2022

Czas Kod Pogoda Temp. Widoczność Sufit Wiatr METAR/SPECI
23:30
V
16 °C 10 km+ - 240° 240° 3 kt METAR LFMP 042130Z AUTO 24003KT CAVOK 16/13 Q1023 NOSIG
23:00
V
16 °C 10 km+ - 210° 210° 3 kt METAR LFMP 042100Z AUTO 21003KT CAVOK 16/13 Q1023 NOSIG
22:30
V
17 °C 10 km+ - 220° 220° 4 kt METAR LFMP 042030Z AUTO 22004KT CAVOK 17/13 Q1023 NOSIG
22:00
V
17 °C 10 km+ - 250° 250° 2 kt METAR LFMP 042000Z AUTO 25002KT CAVOK 17/14 Q1022 NOSIG
21:30
V
18 °C 10 km+ - 290° 290° 2 kt METAR LFMP 041930Z AUTO 29002KT CAVOK 18/14 Q1022 NOSIG
21:00
V
19 °C 10 km+ - Var Var 3 kt METAR LFMP 041900Z AUTO VRB03KT CAVOK 19/14 Q1022 NOSIG
20:30
V
19 °C 10 km+ - 020° 020° 2 kt METAR LFMP 041830Z AUTO 02002KT CAVOK 19/15 Q1022 NOSIG
20:00
V
19 °C 10 km+ - Var Var 2 kt METAR LFMP 041800Z AUTO VRB02KT CAVOK 19/14 Q1022 NOSIG
19:30
V
20 °C 10 km+ - 130° 130° 3 kt METAR LFMP 041730Z AUTO 13003KT CAVOK 20/14 Q1022 NOSIG
19:00
V
21 °C 10 km+ - 120° 120° 4 kt METAR LFMP 041700Z AUTO 12004KT 090V150 CAVOK 21/14 Q1021 NOSIG
18:30
V
22 °C 10 km+ - 100° 100° 4 kt METAR LFMP 041630Z AUTO 10004KT 050V130 CAVOK 22/15 Q1021 NOSIG
18:00
V
23 °C 10 km+ - 100° 100° 7 kt METAR LFMP 041600Z AUTO 10007KT 070V130 CAVOK 23/14 Q1021 NOSIG
17:30
V
23 °C 10 km+ - 100° 100° 6 kt METAR LFMP 041530Z AUTO 10006KT 060V130 CAVOK 23/14 Q1021 NOSIG
17:00
V
24 °C 10 km+ - 100° 100° 7 kt METAR LFMP 041500Z AUTO 10007KT CAVOK 24/15 Q1021 NOSIG
16:30
V
24 °C 10 km+ - 100° 100° 8 kt METAR LFMP 041430Z AUTO 10008KT 060V160 CAVOK 24/13 Q1021 NOSIG
16:00
V
24 °C 10 km+ - 100° 100° 8 kt METAR LFMP 041400Z AUTO 10008KT 060V130 CAVOK 24/14 Q1021 NOSIG
15:30
V
24 °C 10 km+ - 100° 100° 7 kt METAR LFMP 041330Z AUTO 10007KT 070V160 CAVOK 24/15 Q1021 NOSIG
15:00
V
24 °C 10 km+ - 100° 100° 8 kt METAR LFMP 041300Z AUTO 10008KT 050V130 CAVOK 24/14 Q1021 NOSIG
14:30
V
25 °C 10 km+ - 090° 090° 7 kt METAR LFMP 041230Z AUTO 09007KT 050V140 CAVOK 25/15 Q1021 NOSIG
14:00
V
25 °C 10 km+ - 090° 090° 7 kt METAR LFMP 041200Z AUTO 09007KT 060V150 CAVOK 25/15 Q1021 NOSIG
13:30
V
25 °C 10 km+ - 100° 100° 5 kt METAR LFMP 041130Z AUTO 10005KT 020V140 CAVOK 25/15 Q1021 NOSIG
13:00
V
25 °C 10 km+ - 090° 090° 5 kt METAR LFMP 041100Z AUTO 09005KT 050V140 CAVOK 25/15 Q1021 NOSIG
12:30
V
24 °C 10 km+ - 070° 070° 5 kt METAR LFMP 041030Z AUTO 07005KT 030V140 CAVOK 24/14 Q1021 NOSIG
12:00
V
23 °C 10 km+ - 070° 070° 4 kt METAR LFMP 041000Z AUTO 07004KT 010V150 CAVOK 23/14 Q1021 NOSIG
11:30
V
23 °C 10 km+ - 090° 090° 4 kt METAR LFMP 040930Z AUTO 09004KT 360V140 CAVOK 23/14 Q1021 NOSIG
11:00
V
22 °C 10 km+ - Var Var 3 kt METAR LFMP 040900Z AUTO VRB03KT CAVOK 22/14 Q1021 NOSIG
10:30
V
21 °C 10 km+ - Var Var 2 kt METAR LFMP 040830Z AUTO VRB02KT CAVOK 21/14 Q1021 NOSIG
10:00
V
20 °C 10 km+ - Var Var 1 kt METAR LFMP 040800Z AUTO VRB01KT CAVOK 20/14 Q1021 NOSIG
09:30
V
18 °C 10 km+ - 180° 180° 3 kt METAR LFMP 040730Z AUTO 18003KT CAVOK 18/13 Q1021 NOSIG
09:00
V
16 °C 10 km+ - Var Var 3 kt METAR LFMP 040700Z AUTO VRB03KT CAVOK 16/12 Q1021 NOSIG
08:30
V
14 °C 10 km+ - Var Var 2 kt METAR LFMP 040630Z AUTO VRB02KT CAVOK 14/11 Q1020 NOSIG
08:00
V
14 °C 10 km+ - 270° 270° 4 kt METAR LFMP 040600Z AUTO 27004KT CAVOK 14/11 Q1020 NOSIG
07:30
V
13 °C 10 km+ - 180° 180° 4 kt METAR LFMP 040530Z AUTO 18004KT CAVOK 13/11 Q1020 NOSIG
07:00
V
13 °C 10 km+ - 260° 260° 4 kt METAR LFMP 040500Z AUTO 26004KT CAVOK 13/11 Q1020 NOSIG
06:30
V
13 °C 10 km+ - 240° 240° 6 kt METAR LFMP 040430Z AUTO 24006KT CAVOK 13/11 Q1020 NOSIG
06:00
V
14 °C 10 km+ - 230° 230° 6 kt METAR LFMP 040400Z AUTO 23006KT CAVOK 14/11 Q1020 NOSIG
05:30
V
14 °C 10 km+ - 230° 230° 7 kt METAR LFMP 040330Z AUTO 23007KT CAVOK 14/12 Q1020 NOSIG
05:00
V
14 °C 10 km+ - 250° 250° 6 kt METAR LFMP 040300Z AUTO 25006KT CAVOK 14/11 Q1020 NOSIG
04:30
V
14 °C 10 km+ - 230° 230° 5 kt METAR LFMP 040230Z AUTO 23005KT CAVOK 14/11 Q1020
04:00
V
14 °C 10 km+ - 230° 230° 4 kt METAR LFMP 040200Z AUTO 23004KT CAVOK 14/11 Q1020
03:30
V
15 °C 10 km+ - 230° 230° 4 kt METAR LFMP 040130Z AUTO 23004KT 170V260 CAVOK 15/12 Q1020
03:00
V
15 °C 10 km+ - 210° 210° 4 kt METAR LFMP 040100Z AUTO 21004KT CAVOK 15/12 Q1020
02:30
V
16 °C 10 km+ - Var Var 2 kt METAR LFMP 040030Z AUTO VRB02KT CAVOK 16/12 Q1020
02:00
V
16 °C 10 km+ - 230° 230° 5 kt METAR LFMP 040000Z AUTO 23005KT 130V260 CAVOK 16/12 Q1020
01:30
V
17 °C 10 km+ - 310° 310° 5 kt METAR LFMP 032330Z AUTO 31005KT CAVOK 17/11 Q1020
01:00
V
18 °C 10 km+ - 290° 290° 6 kt METAR LFMP 032300Z AUTO 29006KT CAVOK 18/12 Q1020
00:30
V
17 °C 10 km+ - 250° 250° 5 kt METAR LFMP 032230Z AUTO 25005KT CAVOK 17/12 Q1020
00:00
V
19 °C 10 km+ - 330° 330° 5 kt METAR LFMP 032200Z AUTO 33005KT CAVOK 19/12 Q1020

3 października 2022

Czas Kod Pogoda Temp. Widoczność Sufit Wiatr METAR/SPECI
23:30
V
18 °C 10 km+ - 280° 280° 6 kt METAR LFMP 032130Z AUTO 28006KT CAVOK 18/11 Q1020 NOSIG
23:00
V
19 °C 10 km+ - 280° 280° 3 kt METAR LFMP 032100Z AUTO 28003KT 250V310 CAVOK 19/11 Q1020 NOSIG
22:30
V
20 °C 10 km+ - Var Var 3 kt METAR LFMP 032030Z AUTO VRB03KT CAVOK 20/12 Q1020 NOSIG
22:00
V
20 °C 10 km+ - 290° 290° 3 kt METAR LFMP 032000Z AUTO 29003KT CAVOK 20/11 Q1020 NOSIG
21:30
V
19 °C 10 km+ - 270° 270° 3 kt METAR LFMP 031930Z AUTO 27003KT 9999 FEW008 19/11 Q1020 BECMG 33010KT
21:00
V
20 °C 10 km+ - 010° 010° 3 kt METAR LFMP 031900Z AUTO 01003KT CAVOK 20/11 Q1020 NOSIG
20:30
V
21 °C 10 km+ - 310° 310° 4 kt METAR LFMP 031830Z AUTO 31004KT CAVOK 21/10 Q1020 NOSIG
20:00
V
21 °C 10 km+ - 300° 300° 3 kt METAR LFMP 031800Z AUTO 30003KT 260V010 CAVOK 21/11 Q1020 NOSIG
19:30
V
22 °C 10 km+ - 210° 210° 4 kt METAR LFMP 031730Z AUTO 21004KT CAVOK 22/12 Q1019 BECMG 33010KT
19:00
V
23 °C 10 km+ - Var Var 2 kt METAR LFMP 031700Z AUTO VRB02KT CAVOK 23/12 Q1019 NOSIG
18:30
V
24 °C 10 km+ - 130° 130° 4 kt METAR LFMP 031630Z AUTO 13004KT 090V170 CAVOK 24/12 Q1019 BECMG 33010KT
18:00
V
25 °C 10 km+ - 130° 130° 5 kt METAR LFMP 031600Z AUTO 13005KT CAVOK 25/12 Q1019 BECMG 33010KT
17:30
V
27 °C 10 km+ - 160° 160° 5 kt METAR LFMP 031530Z AUTO 16005KT 100V220 CAVOK 27/12 Q1019 BECMG 33010KT
17:00
V
28 °C 10 km+ - 210° 210° 6 kt METAR LFMP 031500Z AUTO 21006KT 100V270 CAVOK 28/13 Q1019 BECMG 33010KT
Starsze dane

My i osoby trzecie śledzimy twoje zachowanie w internecie na naszej stronie za pomocą plików cookie. Jeśli kontynuujesz, zakładamy, że zgadzasz się z naszą polityką plików cookie. Dowiedz się więcej